الصفحة الرئيسية
METAR-TAF:

METAR-TAF

مطار :

مطار أتاتورك الدولي

إسطنبول مطار أتاتورك الدولي, تركيا

دائرة عرض: 40-58N, خط طول: 028-49E, ارتفاع: 48 متر

مراقبة الطقس الحالي

تاريخ ووقت الإصدار 32 دقيقة قبل الساعة 15:20UTC
ريح 6 عقدة من الغرب/الجنوب الغربي
درجة الحرارة 18°درجة مئوية
الرطوبة 59%
ضغط 1025 hPa
الرؤية 10 كم أو أكثر
الغيوم لا تقل 1500 م ولا وجود لمزنة ركامية السحاب الأسود

METAR: LTBA 241520Z 25006KT CAVOK 18/10 Q1025 NOSIG RMK RWY17L 23008KT RWY05 24005KT 210V280 RWY23 25008KT

زمن: 18:52 (15:52 UTC)

توقعات

تاريخ ووقت الإصدار 5ساعات و 12 دقيقة قبل الساعة 10:40UTC
التوقعات صالحة من24 الساعة 12 UTC إلى 25 الساعة 18 UTC
ريح 8 عقدة من الجنوب/الجنوب الغربي
الرؤية 10 كم أو أكثر
الغيوم لا تقل 1500 م ولا وجود لمزنة ركامية السحاب الأسود
أصبح
من 24 الساعة 14 UTC إلى 24 الساعة 18 UTC
ريح 10 عقدة من الشمال/الشمال الشرقي

TAF: LTBA 241040Z 2412/2518 20008KT CAVOK BECMG 2414/2418 03010KT

أرصاد الطقس والتوقعات من أكثر من 4000 مطار (تقارير الطقس للمطار METAR والتنبؤ بالطقس بالمطارTAF).

المحطات المتاحة هي النقط الصفراء والحمراء على الخريطة.

حرك المؤشر فوق النقطة لمعرفة اسم المحطة.

ثم انقر لمعرفة أرصاد وتوقعات الطقس.

لتغيير الخارطة: اضغط على الأزرار الخضراء مع رمز الصليب الأسود للتكبير. على الزر الأخضر مع شرطة للتصغير، أو على الأسهم الخضراء للخرائط المجاورة.


METAR-TAF: